createdAt,value
2019-06-10T00:02:12.624Z,16.91
2019-06-10T00:04:43.296Z,16.91
2019-06-10T00:07:13.928Z,16.88
2019-06-10T00:09:44.573Z,16.87
2019-06-10T00:12:16.564Z,16.79
2019-06-10T00:14:47.182Z,16.70
2019-06-10T00:17:17.695Z,16.68
2019-06-10T00:19:51.109Z,16.71
2019-06-10T00:22:21.531Z,16.71
2019-06-10T00:24:52.405Z,16.72
2019-06-10T00:27:22.916Z,16.57
2019-06-10T00:29:53.563Z,16.53
2019-06-10T00:32:24.184Z,16.52
2019-06-10T00:34:54.774Z,16.56
2019-06-10T00:37:25.376Z,16.52
2019-06-10T00:39:55.942Z,16.44
2019-06-10T00:42:26.488Z,16.34
2019-06-10T00:44:57.140Z,16.39
2019-06-10T00:47:27.701Z,16.45
2019-06-10T00:49:58.310Z,16.37
2019-06-10T00:52:30.884Z,16.21
2019-06-10T00:55:03.291Z,16.12
2019-06-10T00:57:33.590Z,16.20
2019-06-10T01:00:14.934Z,16.24
2019-06-10T01:02:36.467Z,16.27
2019-06-10T01:05:07.366Z,16.32
2019-06-10T01:07:37.929Z,16.36
2019-06-10T01:10:11.818Z,16.38
2019-06-10T01:12:41.612Z,16.33
2019-06-10T01:15:14.036Z,16.28
2019-06-10T01:17:50.991Z,16.27
2019-06-10T01:20:21.271Z,16.21
2019-06-10T01:22:51.843Z,16.25
2019-06-10T01:25:22.499Z,16.28
2019-06-10T01:27:53.024Z,16.25
2019-06-10T01:30:27.151Z,16.25
2019-06-10T01:32:55.939Z,16.26
2019-06-10T01:35:26.554Z,16.14
2019-06-10T01:37:57.147Z,16.16
2019-06-10T01:40:27.766Z,16.11
2019-06-10T01:42:58.423Z,16.08
2019-06-10T01:45:31.112Z,16.02
2019-06-10T01:48:02.344Z,15.99
2019-06-10T01:50:32.981Z,16.03
2019-06-10T01:53:03.503Z,16.03
2019-06-10T01:55:34.141Z,16.04
2019-06-10T01:58:04.723Z,16.04
2019-06-10T02:00:43.133Z,16.10
2019-06-10T02:03:16.586Z,16.09
2019-06-10T02:05:46.038Z,16.14
2019-06-10T02:08:17.724Z,16.17
2019-06-10T02:10:50.822Z,16.19
2019-06-10T02:13:33.505Z,16.19
2019-06-10T02:16:05.389Z,16.09
2019-06-10T02:18:37.101Z,15.95
2019-06-10T02:21:07.638Z,15.88
2019-06-10T02:23:38.191Z,15.96
2019-06-10T02:26:11.302Z,16.00
2019-06-10T02:28:41.071Z,15.98
2019-06-10T02:31:14.332Z,16.02
2019-06-10T02:33:43.947Z,16.05
2019-06-10T02:36:18.168Z,16.09
2019-06-10T02:38:48.238Z,16.08
2019-06-10T02:41:24.096Z,16.12
2019-06-10T02:43:53.347Z,16.09
2019-06-10T02:46:30.766Z,15.98
2019-06-10T02:49:16.451Z,15.95
2019-06-10T02:51:31.556Z,15.96
2019-06-10T02:54:04.731Z,15.94
2019-06-10T02:56:36.795Z,15.95
2019-06-10T02:59:07.623Z,15.93
2019-06-10T03:01:38.415Z,15.91
2019-06-10T03:04:08.945Z,15.97
2019-06-10T03:06:40.518Z,15.98
2019-06-10T03:09:14.130Z,15.97
2019-06-10T03:11:45.079Z,15.98
2019-06-10T03:14:15.830Z,16.00
2019-06-10T03:16:53.838Z,16.01
2019-06-10T03:19:42.298Z,15.98
2019-06-10T03:21:56.744Z,15.89
2019-06-10T03:24:32.763Z,15.87
2019-06-10T03:27:03.543Z,15.87
2019-06-10T03:29:34.066Z,15.91
2019-06-10T03:32:05.632Z,15.93
2019-06-10T03:34:42.151Z,15.97
2019-06-10T03:37:08.722Z,16.00
2019-06-10T03:39:39.676Z,15.99
2019-06-10T03:42:12.489Z,15.92
2019-06-10T03:44:43.050Z,15.90
2019-06-10T03:47:13.746Z,15.86
2019-06-10T03:49:52.397Z,15.90
2019-06-10T03:52:17.132Z,15.93
2019-06-10T03:54:49.423Z,15.90
2019-06-10T03:57:21.770Z,15.89
2019-06-10T03:59:52.813Z,15.87
2019-06-10T04:02:24.953Z,15.75
2019-06-10T04:04:55.888Z,15.77
2019-06-10T04:07:30.638Z,15.84
2019-06-10T04:10:02.717Z,15.86
2019-06-10T04:12:32.902Z,15.90
2019-06-10T04:15:03.458Z,15.93
2019-06-10T04:17:34.057Z,15.87
2019-06-10T04:20:11.738Z,15.79
2019-06-10T04:22:37.008Z,15.77
2019-06-10T04:25:09.376Z,15.75
2019-06-10T04:27:42.287Z,15.77
2019-06-10T04:30:13.407Z,15.75
2019-06-10T04:32:44.611Z,15.73
2019-06-10T04:35:15.294Z,15.65
2019-06-10T04:37:45.912Z,15.68
2019-06-10T04:40:18.455Z,15.70
2019-06-10T04:42:49.040Z,15.70
2019-06-10T04:45:23.603Z,15.69
2019-06-10T04:47:53.833Z,15.67
2019-06-10T04:50:33.142Z,15.70
2019-06-10T04:52:59.071Z,15.74
2019-06-10T04:55:29.320Z,15.74
2019-06-10T04:58:02.393Z,15.77
2019-06-10T05:00:33.144Z,15.84
2019-06-10T05:03:03.876Z,15.91
2019-06-10T05:05:34.432Z,15.98
2019-06-10T05:08:05.086Z,16.09
2019-06-10T05:10:35.634Z,16.16
2019-06-10T05:13:09.266Z,16.24
2019-06-10T05:15:39.807Z,16.30
2019-06-10T05:18:10.405Z,16.38
2019-06-10T05:20:54.106Z,16.44
2019-06-10T05:23:14.401Z,16.46
2019-06-10T05:25:46.291Z,16.52
2019-06-10T05:28:16.892Z,16.55
2019-06-10T05:30:47.430Z,16.57
2019-06-10T05:33:18.014Z,16.64
2019-06-10T05:35:48.827Z,16.71
2019-06-10T05:38:21.234Z,16.77
2019-06-10T05:40:52.166Z,16.80
2019-06-10T05:43:24.914Z,16.87
2019-06-10T05:45:55.077Z,16.93
2019-06-10T05:48:26.715Z,16.95
2019-06-10T05:51:02.817Z,16.97
2019-06-10T05:53:30.868Z,17.03
2019-06-10T05:56:02.333Z,17.04
2019-06-10T05:58:35.816Z,17.08
2019-06-10T06:01:06.539Z,17.12
2019-06-10T06:03:37.195Z,17.13
2019-06-10T06:06:07.773Z,17.13
2019-06-10T06:08:38.381Z,17.19
2019-06-10T06:11:12.789Z,17.22
2019-06-10T06:13:43.547Z,17.26
2019-06-10T06:16:14.116Z,17.32
2019-06-10T06:18:45.415Z,17.34
2019-06-10T06:21:25.815Z,17.40
2019-06-10T06:23:52.612Z,17.48
2019-06-10T06:26:23.559Z,17.54
2019-06-10T06:28:54.628Z,17.59
2019-06-10T06:31:26.150Z,17.58
2019-06-10T06:33:56.864Z,17.58
2019-06-10T06:36:28.579Z,17.57
2019-06-10T06:38:59.302Z,17.60
2019-06-10T06:41:29.885Z,17.60
2019-06-10T06:44:02.427Z,17.65
2019-06-10T06:46:36.550Z,17.71
2019-06-10T06:49:06.491Z,17.67
2019-06-10T06:51:49.517Z,17.70
2019-06-10T06:54:09.403Z,17.75
2019-06-10T06:56:41.096Z,17.77
2019-06-10T06:59:14.673Z,17.80
2019-06-10T07:01:48.330Z,17.77
2019-06-10T07:04:20.812Z,17.74
2019-06-10T07:06:55.416Z,17.76
2019-06-10T07:09:24.430Z,17.83
2019-06-10T07:11:56.682Z,17.87
2019-06-10T07:14:29.242Z,17.83
2019-06-10T07:17:03.927Z,17.91
2019-06-10T07:19:35.023Z,17.91
2019-06-10T07:22:12.584Z,17.91
2019-06-10T07:24:41.131Z,17.91
2019-06-10T07:27:13.126Z,17.91
2019-06-10T07:29:47.016Z,17.87
2019-06-10T07:32:16.195Z,17.84
2019-06-10T07:34:47.148Z,17.87
2019-06-10T07:37:17.736Z,17.87
2019-06-10T07:39:48.344Z,17.98
2019-06-10T07:42:18.958Z,18.06
2019-06-10T07:44:49.533Z,18.08
2019-06-10T07:47:20.169Z,18.06
2019-06-10T07:49:52.236Z,18.09
2019-06-10T07:52:23.675Z,18.08
2019-06-10T07:54:54.455Z,18.14
2019-06-10T07:57:25.031Z,18.20
2019-06-10T07:59:55.717Z,18.25
2019-06-10T08:02:26.345Z,18.32
2019-06-10T08:04:58.750Z,18.38
2019-06-10T08:07:29.394Z,18.40
2019-06-10T08:10:02.731Z,18.45
2019-06-10T08:12:32.617Z,18.57
2019-06-10T08:15:03.324Z,18.66
2019-06-10T08:17:37.720Z,18.73
2019-06-10T08:20:09.968Z,18.75
2019-06-10T08:22:50.182Z,18.67
2019-06-10T08:25:13.875Z,18.72
2019-06-10T08:27:47.399Z,18.70
2019-06-10T08:30:22.854Z,18.69
2019-06-10T08:32:53.314Z,18.68
2019-06-10T08:35:37.652Z,18.65
2019-06-10T08:37:53.901Z,18.66
2019-06-10T08:40:25.184Z,18.75
2019-06-10T08:42:55.851Z,18.80
2019-06-10T08:45:33.307Z,18.94
2019-06-10T08:48:03.630Z,19.01
2019-06-10T08:50:34.323Z,19.08
2019-06-10T08:53:13.711Z,19.07
2019-06-10T08:55:37.693Z,19.16
2019-06-10T08:58:08.342Z,19.21
2019-06-10T09:00:40.434Z,19.30
2019-06-10T09:03:12.618Z,19.22
2019-06-10T09:05:47.412Z,19.35
2019-06-10T09:08:15.663Z,19.43
2019-06-10T09:10:49.792Z,19.55
2019-06-10T09:13:18.566Z,19.57
2019-06-10T09:16:10.147Z,19.51
2019-06-10T09:18:23.947Z,19.53
2019-06-10T09:20:56.268Z,19.53
2019-06-10T09:23:27.211Z,19.55
2019-06-10T09:25:59.258Z,19.61
2019-06-10T09:28:29.859Z,19.68
2019-06-10T09:31:03.660Z,19.70
2019-06-10T09:33:33.185Z,19.69
2019-06-10T09:36:07.240Z,19.62
2019-06-10T09:38:37.810Z,19.66
2019-06-10T09:41:08.415Z,19.76
2019-06-10T09:43:41.337Z,19.92
2019-06-10T09:46:12.654Z,20.01
2019-06-10T09:48:49.629Z,20.08
2019-06-10T09:51:18.458Z,20.06
2019-06-10T09:54:01.093Z,20.09
2019-06-10T09:56:23.410Z,20.19
2019-06-10T09:58:56.058Z,20.29
2019-06-10T10:01:26.686Z,20.32
2019-06-10T10:04:00.274Z,20.42
2019-06-10T10:06:32.868Z,20.52
2019-06-10T10:09:05.511Z,20.65
2019-06-10T10:11:36.238Z,20.73
2019-06-10T10:14:10.344Z,20.76
2019-06-10T10:16:39.281Z,20.88
2019-06-10T10:19:12.875Z,20.94
2019-06-10T10:21:46.933Z,20.95
2019-06-10T10:24:16.720Z,20.96
2019-06-10T10:26:50.873Z,21.05
2019-06-10T10:29:19.599Z,21.05
2019-06-10T10:31:52.331Z,21.10
2019-06-10T10:34:23.656Z,21.08
2019-06-10T10:36:57.141Z,21.10
2019-06-10T10:39:27.066Z,21.07
2019-06-10T10:41:57.703Z,21.09
2019-06-10T10:44:28.285Z,21.05
2019-06-10T10:46:58.866Z,21.15
2019-06-10T10:49:29.546Z,21.15
2019-06-10T10:52:02.518Z,21.15
2019-06-10T10:54:36.495Z,21.18
2019-06-10T10:57:06.577Z,21.19
2019-06-10T10:59:37.101Z,21.24
2019-06-10T11:02:07.766Z,21.28
2019-06-10T11:04:45.919Z,21.38
2019-06-10T11:07:16.641Z,21.45
2019-06-10T11:09:48.546Z,21.50
2019-06-10T11:12:22.938Z,21.62
2019-06-10T11:15:00.432Z,21.55
2019-06-10T11:17:30.390Z,21.54
2019-06-10T11:20:03.821Z,21.52
2019-06-10T11:22:34.522Z,21.51
2019-06-10T11:25:05.460Z,21.62
2019-06-10T11:27:37.106Z,21.63
2019-06-10T11:30:08.324Z,21.73
2019-06-10T11:32:38.934Z,21.84
2019-06-10T11:35:16.216Z,21.75
2019-06-10T11:37:48.942Z,21.70
2019-06-10T11:40:22.424Z,21.79
2019-06-10T11:42:56.412Z,21.80
2019-06-10T11:45:26.394Z,21.84
2019-06-10T11:47:58.299Z,21.84
2019-06-10T11:50:33.402Z,21.93
2019-06-10T11:53:06.919Z,21.95
2019-06-10T11:55:36.558Z,21.94
2019-06-10T11:58:07.364Z,21.86
2019-06-10T12:00:38.203Z,21.81
2019-06-10T12:03:09.692Z,21.81
2019-06-10T12:05:40.295Z,21.81
2019-06-10T12:08:13.223Z,21.82
2019-06-10T12:10:43.843Z,21.83
2019-06-10T12:13:14.641Z,21.81
2019-06-10T12:16:20.871Z,21.81
2019-06-10T12:18:17.599Z,21.79
2019-06-10T12:20:49.524Z,21.80
2019-06-10T12:23:22.710Z,21.83
2019-06-10T12:25:56.215Z,21.91
2019-06-10T12:28:28.513Z,21.96
2019-06-10T12:31:02.855Z,21.92
2019-06-10T12:33:33.616Z,21.94
2019-06-10T12:36:06.890Z,21.93
2019-06-10T12:38:37.608Z,22.01
2019-06-10T12:41:10.264Z,21.98
2019-06-10T12:43:43.343Z,21.92
2019-06-10T12:46:14.185Z,22.04
2019-06-10T12:48:44.837Z,22.08
2019-06-10T12:51:18.019Z,22.12
2019-06-10T12:53:48.672Z,22.14
2019-06-10T12:56:19.273Z,22.13
2019-06-10T12:58:49.873Z,22.15
2019-06-10T13:01:20.818Z,22.09
2019-06-10T13:03:53.655Z,22.23
2019-06-10T13:06:26.711Z,22.26
2019-06-10T13:08:59.612Z,22.24
2019-06-10T13:11:32.867Z,22.24
2019-06-10T13:14:06.460Z,22.16
2019-06-10T13:16:36.103Z,22.28
2019-06-10T13:19:08.001Z,22.30
2019-06-10T13:21:39.831Z,22.29
2019-06-10T13:24:12.924Z,22.31
2019-06-10T13:26:43.308Z,22.27
2019-06-10T13:29:17.600Z,22.30
2019-06-10T13:31:46.773Z,22.27
2019-06-10T13:34:19.355Z,22.38
2019-06-10T13:36:49.922Z,22.29
2019-06-10T13:39:22.287Z,22.35
2019-06-10T13:41:59.926Z,22.28
2019-06-10T13:44:32.486Z,22.33
2019-06-10T13:47:07.123Z,22.41
2019-06-10T13:49:35.401Z,22.30
2019-06-10T13:52:11.818Z,22.23
2019-06-10T13:54:38.309Z,22.19
2019-06-10T13:57:09.804Z,22.22
2019-06-10T13:59:42.732Z,22.22
2019-06-10T14:02:13.546Z,22.18
2019-06-10T14:04:44.206Z,22.20
2019-06-10T14:07:17.374Z,22.16
2019-06-10T14:09:49.237Z,22.23
2019-06-10T14:12:19.802Z,22.30
2019-06-10T14:14:53.172Z,22.29
2019-06-10T14:17:22.983Z,22.27
2019-06-10T14:19:53.643Z,22.30
2019-06-10T14:22:24.203Z,22.34
2019-06-10T14:24:54.895Z,22.28
2019-06-10T14:27:25.649Z,22.35
2019-06-10T14:29:56.294Z,22.42
2019-06-10T14:32:27.872Z,22.47
2019-06-10T14:34:58.455Z,22.51
2019-06-10T14:37:37.430Z,22.47
2019-06-10T14:40:09.301Z,22.50
2019-06-10T14:42:46.082Z,22.52
2019-06-10T14:45:16.844Z,22.49
2019-06-10T14:47:47.424Z,22.51
2019-06-10T14:50:18.800Z,22.44
2019-06-10T14:52:49.371Z,22.36
2019-06-10T14:55:23.090Z,22.43
2019-06-10T14:57:53.237Z,22.44
2019-06-10T15:00:26.056Z,22.45
2019-06-10T15:02:56.628Z,22.47
2019-06-10T15:05:28.259Z,22.47
2019-06-10T15:08:03.165Z,22.50
2019-06-10T15:10:33.360Z,22.49
2019-06-10T15:13:04.066Z,22.57
2019-06-10T15:15:34.659Z,22.55
2019-06-10T15:18:05.280Z,22.53
2019-06-10T15:20:36.932Z,22.46
2019-06-10T15:23:08.608Z,22.52
2019-06-10T15:25:50.124Z,22.47
2019-06-10T15:28:16.347Z,22.45
2019-06-10T15:30:47.521Z,22.32
2019-06-10T15:33:18.506Z,22.28
2019-06-10T15:35:53.226Z,22.28
2019-06-10T15:38:24.360Z,22.25
2019-06-10T15:40:54.987Z,22.27
2019-06-10T15:43:25.590Z,22.26
2019-06-10T15:45:56.235Z,22.21
2019-06-10T15:48:26.791Z,22.19
2019-06-10T15:50:57.446Z,22.16
2019-06-10T15:53:29.150Z,22.00
2019-06-10T15:56:14.481Z,21.88
2019-06-10T15:58:36.844Z,21.77
2019-06-10T16:01:16.701Z,21.81
2019-06-10T16:03:45.858Z,21.79
2019-06-10T16:06:16.454Z,21.85
2019-06-10T16:08:47.694Z,21.76
2019-06-10T16:11:19.999Z,21.87
2019-06-10T16:13:53.200Z,21.96
2019-06-10T16:16:23.143Z,22.03
2019-06-10T16:18:54.983Z,21.99
2019-06-10T16:21:25.648Z,21.96
2019-06-10T16:23:56.186Z,21.98
2019-06-10T16:26:27.196Z,22.01
2019-06-10T16:28:58.122Z,21.98
2019-06-10T16:31:28.886Z,22.00
2019-06-10T16:33:59.489Z,21.92
2019-06-10T16:36:32.094Z,21.87
2019-06-10T16:39:03.382Z,21.74
2019-06-10T16:41:34.482Z,21.65
2019-06-10T16:44:05.140Z,21.63
2019-06-10T16:46:36.593Z,21.48
2019-06-10T16:49:07.149Z,21.45
2019-06-10T16:51:38.483Z,21.47
2019-06-10T16:54:09.038Z,21.53
2019-06-10T16:56:39.674Z,21.51
2019-06-10T16:59:12.293Z,21.46
2019-06-10T17:01:43.017Z,21.48
2019-06-10T17:04:13.560Z,21.45
2019-06-10T17:06:44.299Z,21.40
2019-06-10T17:09:14.878Z,21.37
2019-06-10T17:11:45.536Z,21.36
2019-06-10T17:14:16.119Z,21.33
2019-06-10T17:16:52.990Z,21.34
2019-06-10T17:19:26.688Z,21.36
2019-06-10T17:21:56.043Z,21.33
2019-06-10T17:24:27.691Z,21.36
2019-06-10T17:26:58.950Z,21.34
2019-06-10T17:29:30.604Z,21.35
2019-06-10T17:32:02.809Z,21.37
2019-06-10T17:34:34.034Z,21.38
2019-06-10T17:37:04.734Z,21.35
2019-06-10T17:39:35.340Z,21.31
2019-06-10T17:42:08.600Z,21.29
2019-06-10T17:44:40.196Z,21.28
2019-06-10T17:47:13.075Z,21.29
2019-06-10T17:49:44.391Z,21.27
2019-06-10T17:52:19.063Z,21.23
2019-06-10T17:54:49.669Z,21.18
2019-06-10T17:57:20.284Z,21.15
2019-06-10T17:59:53.920Z,21.06
2019-06-10T18:02:25.841Z,20.99
2019-06-10T18:04:56.734Z,20.96
2019-06-10T18:07:27.713Z,20.92
2019-06-10T18:09:58.582Z,20.90
2019-06-10T18:12:29.986Z,20.91
2019-06-10T18:15:03.329Z,20.91
2019-06-10T18:17:35.140Z,20.85
2019-06-10T18:20:05.909Z,20.77
2019-06-10T18:25:19.372Z,20.78
2019-06-10T18:27:52.218Z,20.70
2019-06-10T18:30:22.978Z,20.67
2019-06-10T18:32:53.674Z,20.64
2019-06-10T18:35:25.754Z,20.57
2019-06-10T18:37:56.560Z,20.51
2019-06-10T18:40:27.443Z,20.46
2019-06-10T18:42:58.120Z,20.45
2019-06-10T18:45:29.821Z,20.45
2019-06-10T18:48:01.825Z,20.41
2019-06-10T18:50:36.088Z,20.37
2019-06-10T18:53:07.651Z,20.37
2019-06-10T18:55:40.581Z,20.34
2019-06-10T18:58:10.668Z,20.27
2019-06-10T19:00:56.960Z,20.18
2019-06-10T19:03:16.629Z,20.06
2019-06-10T19:05:46.027Z,19.86
2019-06-10T19:08:16.747Z,19.76
2019-06-10T19:10:47.428Z,19.63
2019-06-10T19:13:18.245Z,19.50
2019-06-10T19:15:53.088Z,19.53
2019-06-10T19:18:24.161Z,19.44
2019-06-10T19:20:54.774Z,19.40
2019-06-10T19:23:30.522Z,19.37
2019-06-10T19:26:02.990Z,19.30
2019-06-10T19:28:35.815Z,19.18
2019-06-10T19:31:05.837Z,19.14
2019-06-10T19:33:37.560Z,19.16
2019-06-10T19:36:08.891Z,19.14
2019-06-10T19:38:44.075Z,19.12
2019-06-10T19:41:13.646Z,19.07
2019-06-10T19:43:50.156Z,19.07
2019-06-10T19:46:23.438Z,19.00
2019-06-10T19:49:03.167Z,18.95
2019-06-10T19:51:32.876Z,18.74
2019-06-10T19:54:03.721Z,18.74
2019-06-10T19:56:37.155Z,18.64
2019-06-10T19:59:12.551Z,18.65
2019-06-10T20:01:46.595Z,18.61
2019-06-10T20:04:22.633Z,18.59
2019-06-10T20:06:53.837Z,18.54
2019-06-10T20:09:24.650Z,18.54
2019-06-10T20:11:55.251Z,18.49
2019-06-10T20:14:26.017Z,18.47
2019-06-10T20:16:56.668Z,18.44
2019-06-10T20:19:27.340Z,18.44
2019-06-10T20:21:58.018Z,18.43
2019-06-10T20:24:30.201Z,18.40
2019-06-10T20:27:03.193Z,18.35
2019-06-10T20:29:35.759Z,18.27
2019-06-10T20:32:06.748Z,18.30
2019-06-10T20:34:41.335Z,18.20
2019-06-10T20:37:13.228Z,18.14
2019-06-10T20:39:45.997Z,18.09
2019-06-10T20:42:16.643Z,18.09
2019-06-10T20:44:49.014Z,18.07
2019-06-10T20:47:19.609Z,18.03
2019-06-10T20:49:56.220Z,18.02
2019-06-10T20:52:27.120Z,18.04
2019-06-10T20:54:57.793Z,18.00
2019-06-10T20:57:28.382Z,18.03
2019-06-10T20:59:59.027Z,17.95
2019-06-10T21:02:32.597Z,17.97
2019-06-10T21:05:03.344Z,17.97
2019-06-10T21:07:39.151Z,17.96
2019-06-10T21:10:12.845Z,17.94
2019-06-10T21:12:44.895Z,17.93
2019-06-10T21:15:15.791Z,17.90
2019-06-10T21:17:47.962Z,17.89
2019-06-10T21:20:18.920Z,17.87
2019-06-10T21:22:53.584Z,17.83
2019-06-10T21:25:24.317Z,17.82
2019-06-10T21:27:54.877Z,17.75
2019-06-10T21:30:36.935Z,17.72
2019-06-10T21:32:58.025Z,17.70
2019-06-10T21:35:28.712Z,17.71
2019-06-10T21:37:59.329Z,17.75
2019-06-10T21:40:35.601Z,17.73
2019-06-10T21:43:06.324Z,17.70
2019-06-10T21:45:36.954Z,17.62
2019-06-10T21:48:08.942Z,17.59
2019-06-10T21:50:39.530Z,17.54
2019-06-10T21:53:13.011Z,17.56
2019-06-10T21:55:45.136Z,17.54
2019-06-10T21:58:15.866Z,17.53
2019-06-10T22:01:04.858Z,17.48
2019-06-10T22:03:23.394Z,17.50
2019-06-10T22:05:54.292Z,17.51
2019-06-10T22:08:24.885Z,17.46
2019-06-10T22:10:56.626Z,17.45
2019-06-10T22:13:27.329Z,17.48
2019-06-10T22:16:03.152Z,17.47
2019-06-10T22:18:33.362Z,17.45
2019-06-10T22:21:04.060Z,17.43
2019-06-10T22:23:34.731Z,17.39
2019-06-10T22:26:05.369Z,17.39
2019-06-10T22:28:36.026Z,17.39
2019-06-10T22:31:19.187Z,17.42
2019-06-10T22:33:38.909Z,17.42
2019-06-10T22:36:13.116Z,17.44
2019-06-10T22:38:43.643Z,17.45
2019-06-10T22:41:14.343Z,17.44
2019-06-10T22:43:44.895Z,17.44
2019-06-10T22:46:15.562Z,17.40
2019-06-10T22:48:46.882Z,17.35
2019-06-10T22:51:17.539Z,17.28
2019-06-10T22:53:52.636Z,17.28
2019-06-10T22:56:22.615Z,17.28
2019-06-10T22:58:55.975Z,17.25
2019-06-10T23:01:34.194Z,17.27
2019-06-10T23:04:01.042Z,17.20
2019-06-10T23:06:33.766Z,17.15
2019-06-10T23:09:04.339Z,17.10
2019-06-10T23:11:34.918Z,17.04
2019-06-10T23:14:05.504Z,17.05
2019-06-10T23:16:36.161Z,17.04
2019-06-10T23:19:06.878Z,17.06
2019-06-10T23:21:37.721Z,17.07
2019-06-10T23:24:08.270Z,17.02
2019-06-10T23:26:42.486Z,16.90
2019-06-10T23:29:13.130Z,16.91
2019-06-10T23:31:51.746Z,16.88
2019-06-10T23:34:18.397Z,16.87
2019-06-10T23:36:48.399Z,16.78
2019-06-10T23:39:18.974Z,16.82
2019-06-10T23:41:51.148Z,16.86
2019-06-10T23:44:22.939Z,16.87
2019-06-10T23:46:55.283Z,16.83
2019-06-10T23:49:25.983Z,16.82
2019-06-10T23:51:57.584Z,16.76
2019-06-10T23:54:32.340Z,16.79
2019-06-10T23:57:05.834Z,16.78
2019-06-10T23:59:35.809Z,16.72
